sensor_id;sensor_type;location;lat;lon;timestamp;P1;durP1;ratioP1;P2;durP2;ratioP2
47764;SDS011;33529;49.242;8.670;2023-03-02T00:00:38;19.13;;;10.73;;
47764;SDS011;33529;49.242;8.670;2023-03-02T00:03:08;19.70;;;11.98;;
47764;SDS011;33529;49.242;8.670;2023-03-02T00:05:36;20.33;;;10.52;;
47764;SDS011;33529;49.242;8.670;2023-03-02T00:08:04;18.80;;;10.65;;
47764;SDS011;33529;49.242;8.670;2023-03-02T00:10:31;17.58;;;10.43;;
47764;SDS011;33529;49.242;8.670;2023-03-02T00:12:57;21.20;;;11.40;;
47764;SDS011;33529;49.242;8.670;2023-03-02T00:15:24;17.90;;;10.77;;
47764;SDS011;33529;49.242;8.670;2023-03-02T00:17:51;17.13;;;9.82;;
47764;SDS011;33529;49.242;8.670;2023-03-02T00:20:18;14.63;;;8.75;;
47764;SDS011;33529;49.242;8.670;2023-03-02T00:22:45;21.45;;;12.00;;
47764;SDS011;33529;49.242;8.670;2023-03-02T00:25:13;16.60;;;10.60;;
47764;SDS011;33529;49.242;8.670;2023-03-02T00:27:41;20.85;;;11.50;;
47764;SDS011;33529;49.242;8.670;2023-03-02T00:30:09;19.08;;;10.88;;
47764;SDS011;33529;49.242;8.670;2023-03-02T00:32:37;16.45;;;9.98;;
47764;SDS011;33529;49.242;8.670;2023-03-02T00:35:04;17.45;;;10.45;;
47764;SDS011;33529;49.242;8.670;2023-03-02T00:37:33;21.45;;;11.00;;
47764;SDS011;33529;49.242;8.670;2023-03-02T00:40:02;19.60;;;10.45;;
47764;SDS011;33529;49.242;8.670;2023-03-02T00:42:35;18.42;;;10.57;;
47764;SDS011;33529;49.242;8.670;2023-03-02T00:45:03;20.55;;;11.48;;
47764;SDS011;33529;49.242;8.670;2023-03-02T00:47:33;20.58;;;12.65;;
47764;SDS011;33529;49.242;8.670;2023-03-02T00:50:01;20.20;;;10.98;;
47764;SDS011;33529;49.242;8.670;2023-03-02T00:52:28;22.67;;;10.23;;
47764;SDS011;33529;49.242;8.670;2023-03-02T00:54:56;17.42;;;11.43;;
47764;SDS011;33529;49.242;8.670;2023-03-02T00:57:23;22.95;;;12.02;;
47764;SDS011;33529;49.242;8.670;2023-03-02T00:59:51;15.95;;;9.93;;
47764;SDS011;33529;49.242;8.670;2023-03-02T01:02:36;19.33;;;11.13;;
47764;SDS011;33529;49.242;8.670;2023-03-02T01:05:11;18.80;;;11.15;;
47764;SDS011;33529;49.242;8.670;2023-03-02T01:07:38;22.23;;;11.50;;
47764;SDS011;33529;49.242;8.670;2023-03-02T01:10:05;16.33;;;9.77;;
47764;SDS011;33529;49.242;8.670;2023-03-02T01:12:32;20.75;;;11.85;;
47764;SDS011;33529;49.242;8.670;2023-03-02T01:14:59;21.83;;;11.13;;
47764;SDS011;33529;49.242;8.670;2023-03-02T01:17:27;21.95;;;11.07;;
47764;SDS011;33529;49.242;8.670;2023-03-02T01:19:54;20.00;;;10.80;;
47764;SDS011;33529;49.242;8.670;2023-03-02T01:22:22;20.88;;;10.88;;
47764;SDS011;33529;49.242;8.670;2023-03-02T01:24:49;17.25;;;10.85;;
47764;SDS011;33529;49.242;8.670;2023-03-02T01:27:17;19.77;;;10.75;;
47764;SDS011;33529;49.242;8.670;2023-03-02T01:29:44;21.63;;;10.40;;
47764;SDS011;33529;49.242;8.670;2023-03-02T01:32:11;21.17;;;11.43;;
47764;SDS011;33529;49.242;8.670;2023-03-02T01:34:38;23.35;;;11.45;;
47764;SDS011;33529;49.242;8.670;2023-03-02T01:37:05;23.48;;;10.73;;
47764;SDS011;33529;49.242;8.670;2023-03-02T01:39:31;21.80;;;10.98;;
47764;SDS011;33529;49.242;8.670;2023-03-02T01:41:58;22.10;;;11.68;;
47764;SDS011;33529;49.242;8.670;2023-03-02T01:44:35;19.80;;;10.73;;
47764;SDS011;33529;49.242;8.670;2023-03-02T01:47:19;21.42;;;10.55;;
47764;SDS011;33529;49.242;8.670;2023-03-02T01:52:48;18.48;;;11.27;;
47764;SDS011;33529;49.242;8.670;2023-03-02T01:55:18;22.90;;;10.43;;
47764;SDS011;33529;49.242;8.670;2023-03-02T01:57:50;18.33;;;11.77;;
47764;SDS011;33529;49.242;8.670;2023-03-02T02:00:22;17.58;;;11.75;;
47764;SDS011;33529;49.242;8.670;2023-03-02T02:02:52;18.48;;;9.95;;
47764;SDS011;33529;49.242;8.670;2023-03-02T02:05:34;20.85;;;11.55;;
47764;SDS011;33529;49.242;8.670;2023-03-02T02:08:04;20.33;;;11.18;;
47764;SDS011;33529;49.242;8.670;2023-03-02T02:10:32;21.50;;;11.07;;
47764;SDS011;33529;49.242;8.670;2023-03-02T02:12:59;18.42;;;10.43;;
47764;SDS011;33529;49.242;8.670;2023-03-02T02:15:26;18.98;;;10.20;;
47764;SDS011;33529;49.242;8.670;2023-03-02T02:17:53;22.38;;;11.20;;
47764;SDS011;33529;49.242;8.670;2023-03-02T02:25:58;20.50;;;11.55;;
47764;SDS011;33529;49.242;8.670;2023-03-02T02:31:02;17.70;;;10.63;;
47764;SDS011;33529;49.242;8.670;2023-03-02T02:33:36;22.50;;;11.23;;
47764;SDS011;33529;49.242;8.670;2023-03-02T02:36:07;19.58;;;11.30;;
47764;SDS011;33529;49.242;8.670;2023-03-02T02:38:38;23.38;;;10.30;;
47764;SDS011;33529;49.242;8.670;2023-03-02T02:41:07;22.67;;;12.27;;
47764;SDS011;33529;49.242;8.670;2023-03-02T02:43:41;19.05;;;10.73;;
47764;SDS011;33529;49.242;8.670;2023-03-02T02:46:09;18.50;;;10.07;;
47764;SDS011;33529;49.242;8.670;2023-03-02T02:48:37;20.73;;;11.23;;
47764;SDS011;33529;49.242;8.670;2023-03-02T02:51:05;22.73;;;11.77;;
47764;SDS011;33529;49.242;8.670;2023-03-02T02:53:39;19.27;;;10.07;;
47764;SDS011;33529;49.242;8.670;2023-03-02T02:56:13;21.42;;;11.52;;
47764;SDS011;33529;49.242;8.670;2023-03-02T02:58:43;22.35;;;11.55;;
47764;SDS011;33529;49.242;8.670;2023-03-02T03:01:17;18.15;;;9.38;;
47764;SDS011;33529;49.242;8.670;2023-03-02T03:03:54;21.15;;;10.55;;
47764;SDS011;33529;49.242;8.670;2023-03-02T03:06:25;22.38;;;11.65;;
47764;SDS011;33529;49.242;8.670;2023-03-02T03:08:57;22.20;;;11.25;;
47764;SDS011;33529;49.242;8.670;2023-03-02T03:11:35;21.58;;;11.32;;
47764;SDS011;33529;49.242;8.670;2023-03-02T03:14:07;22.58;;;10.32;;
47764;SDS011;33529;49.242;8.670;2023-03-02T03:16:44;17.55;;;10.20;;
47764;SDS011;33529;49.242;8.670;2023-03-02T03:21:55;18.52;;;9.93;;
47764;SDS011;33529;49.242;8.670;2023-03-02T03:24:26;18.77;;;10.38;;
47764;SDS011;33529;49.242;8.670;2023-03-02T03:26:55;17.13;;;10.88;;
47764;SDS011;33529;49.242;8.670;2023-03-02T03:29:24;22.58;;;10.57;;
47764;SDS011;33529;49.242;8.670;2023-03-02T03:31:57;19.48;;;10.85;;
47764;SDS011;33529;49.242;8.670;2023-03-02T03:34:26;17.25;;;9.73;;
47764;SDS011;33529;49.242;8.670;2023-03-02T03:36:54;18.60;;;10.85;;
47764;SDS011;33529;49.242;8.670;2023-03-02T03:39:31;19.45;;;10.57;;
47764;SDS011;33529;49.242;8.670;2023-03-02T03:41:58;18.67;;;9.23;;
47764;SDS011;33529;49.242;8.670;2023-03-02T03:44:25;18.55;;;10.10;;
47764;SDS011;33529;49.242;8.670;2023-03-02T03:46:51;20.30;;;11.32;;
47764;SDS011;33529;49.242;8.670;2023-03-02T03:49:19;18.75;;;10.18;;
47764;SDS011;33529;49.242;8.670;2023-03-02T03:51:46;17.17;;;10.43;;
47764;SDS011;33529;49.242;8.670;2023-03-02T03:54:13;14.48;;;9.15;;
47764;SDS011;33529;49.242;8.670;2023-03-02T03:56:42;16.02;;;9.40;;
47764;SDS011;33529;49.242;8.670;2023-03-02T03:59:13;22.50;;;10.90;;
47764;SDS011;33529;49.242;8.670;2023-03-02T04:01:49;18.35;;;10.45;;
47764;SDS011;33529;49.242;8.670;2023-03-02T04:04:24;17.13;;;10.38;;
47764;SDS011;33529;49.242;8.670;2023-03-02T04:06:57;20.55;;;10.00;;
47764;SDS011;33529;49.242;8.670;2023-03-02T04:09:25;15.75;;;10.45;;
47764;SDS011;33529;49.242;8.670;2023-03-02T04:11:55;16.92;;;10.23;;
47764;SDS011;33529;49.242;8.670;2023-03-02T04:14:23;16.70;;;9.35;;
47764;SDS011;33529;49.242;8.670;2023-03-02T04:16:52;18.10;;;9.85;;
47764;SDS011;33529;49.242;8.670;2023-03-02T04:19:20;15.55;;;9.18;;
47764;SDS011;33529;49.242;8.670;2023-03-02T04:21:51;18.85;;;9.80;;
47764;SDS011;33529;49.242;8.670;2023-03-02T04:24:20;20.80;;;10.90;;
47764;SDS011;33529;49.242;8.670;2023-03-02T04:26:50;17.25;;;10.40;;
47764;SDS011;33529;49.242;8.670;2023-03-02T04:29:17;19.90;;;9.57;;
47764;SDS011;33529;49.242;8.670;2023-03-02T04:31:45;18.13;;;9.90;;
47764;SDS011;33529;49.242;8.670;2023-03-02T04:34:14;21.90;;;11.00;;
47764;SDS011;33529;49.242;8.670;2023-03-02T04:36:43;16.60;;;9.02;;
47764;SDS011;33529;49.242;8.670;2023-03-02T04:39:13;20.02;;;10.02;;
47764;SDS011;33529;49.242;8.670;2023-03-02T04:41:44;21.30;;;10.63;;
47764;SDS011;33529;49.242;8.670;2023-03-02T04:44:12;16.33;;;9.75;;
47764;SDS011;33529;49.242;8.670;2023-03-02T04:46:41;19.63;;;9.75;;
47764;SDS011;33529;49.242;8.670;2023-03-02T04:49:10;18.88;;;10.13;;
47764;SDS011;33529;49.242;8.670;2023-03-02T04:51:38;20.65;;;11.10;;
47764;SDS011;33529;49.242;8.670;2023-03-02T04:54:09;17.20;;;9.00;;
47764;SDS011;33529;49.242;8.670;2023-03-02T04:56:43;14.98;;;9.82;;
47764;SDS011;33529;49.242;8.670;2023-03-02T04:59:14;18.75;;;10.80;;
47764;SDS011;33529;49.242;8.670;2023-03-02T05:01:41;17.75;;;11.07;;
47764;SDS011;33529;49.242;8.670;2023-03-02T05:04:09;16.45;;;11.25;;
47764;SDS011;33529;49.242;8.670;2023-03-02T05:06:37;18.15;;;10.63;;
47764;SDS011;33529;49.242;8.670;2023-03-02T05:09:04;21.50;;;9.88;;
47764;SDS011;33529;49.242;8.670;2023-03-02T05:11:31;22.50;;;10.60;;
47764;SDS011;33529;49.242;8.670;2023-03-02T05:13:59;18.85;;;9.95;;
47764;SDS011;33529;49.242;8.670;2023-03-02T05:16:28;17.27;;;9.40;;
47764;SDS011;33529;49.242;8.670;2023-03-02T05:18:58;17.92;;;9.13;;
47764;SDS011;33529;49.242;8.670;2023-03-02T05:21:26;18.92;;;10.00;;
47764;SDS011;33529;49.242;8.670;2023-03-02T05:23:53;16.70;;;10.57;;
47764;SDS011;33529;49.242;8.670;2023-03-02T05:26:20;16.52;;;8.63;;
47764;SDS011;33529;49.242;8.670;2023-03-02T05:28:47;16.85;;;10.02;;
47764;SDS011;33529;49.242;8.670;2023-03-02T05:31:18;16.70;;;10.25;;
47764;SDS011;33529;49.242;8.670;2023-03-02T05:33:48;17.70;;;8.80;;
47764;SDS011;33529;49.242;8.670;2023-03-02T05:36:15;22.88;;;11.02;;
47764;SDS011;33529;49.242;8.670;2023-03-02T05:38:46;19.60;;;11.02;;
47764;SDS011;33529;49.242;8.670;2023-03-02T05:41:12;16.67;;;9.57;;
47764;SDS011;33529;49.242;8.670;2023-03-02T05:43:40;15.68;;;8.93;;
47764;SDS011;33529;49.242;8.670;2023-03-02T05:46:07;17.58;;;9.25;;
47764;SDS011;33529;49.242;8.670;2023-03-02T05:48:33;18.23;;;9.02;;
47764;SDS011;33529;49.242;8.670;2023-03-02T05:51:00;16.58;;;9.95;;
47764;SDS011;33529;49.242;8.670;2023-03-02T05:53:27;17.40;;;9.57;;
47764;SDS011;33529;49.242;8.670;2023-03-02T05:55:54;20.15;;;9.38;;
47764;SDS011;33529;49.242;8.670;2023-03-02T05:58:21;17.45;;;10.23;;
47764;SDS011;33529;49.242;8.670;2023-03-02T06:00:48;19.13;;;9.68;;
47764;SDS011;33529;49.242;8.670;2023-03-02T06:03:15;16.83;;;9.40;;
47764;SDS011;33529;49.242;8.670;2023-03-02T06:05:42;17.83;;;10.98;;
47764;SDS011;33529;49.242;8.670;2023-03-02T06:08:09;19.08;;;10.38;;
47764;SDS011;33529;49.242;8.670;2023-03-02T06:10:36;16.00;;;9.00;;
47764;SDS011;33529;49.242;8.670;2023-03-02T06:13:03;14.63;;;9.43;;
47764;SDS011;33529;49.242;8.670;2023-03-02T06:15:30;17.35;;;9.70;;
47764;SDS011;33529;49.242;8.670;2023-03-02T06:17:56;21.02;;;10.43;;
47764;SDS011;33529;49.242;8.670;2023-03-02T06:20:23;17.20;;;10.52;;
47764;SDS011;33529;49.242;8.670;2023-03-02T06:22:50;20.33;;;10.07;;
47764;SDS011;33529;49.242;8.670;2023-03-02T06:25:19;22.40;;;11.10;;
47764;SDS011;33529;49.242;8.670;2023-03-02T06:27:47;19.13;;;10.10;;
47764;SDS011;33529;49.242;8.670;2023-03-02T06:30:20;18.52;;;11.13;;
47764;SDS011;33529;49.242;8.670;2023-03-02T06:32:49;17.45;;;10.23;;
47764;SDS011;33529;49.242;8.670;2023-03-02T06:35:16;19.75;;;10.23;;
47764;SDS011;33529;49.242;8.670;2023-03-02T06:37:43;17.25;;;11.15;;
47764;SDS011;33529;49.242;8.670;2023-03-02T06:40:10;17.67;;;10.63;;
47764;SDS011;33529;49.242;8.670;2023-03-02T06:42:39;19.35;;;10.80;;
47764;SDS011;33529;49.242;8.670;2023-03-02T06:45:07;13.70;;;9.35;;
47764;SDS011;33529;49.242;8.670;2023-03-02T06:47:35;18.17;;;10.45;;
47764;SDS011;33529;49.242;8.670;2023-03-02T06:50:02;16.60;;;10.48;;
47764;SDS011;33529;49.242;8.670;2023-03-02T06:52:30;18.15;;;11.38;;
47764;SDS011;33529;49.242;8.670;2023-03-02T06:54:57;19.92;;;11.27;;
47764;SDS011;33529;49.242;8.670;2023-03-02T06:57:23;21.33;;;11.15;;
47764;SDS011;33529;49.242;8.670;2023-03-02T06:59:50;20.50;;;10.85;;
47764;SDS011;33529;49.242;8.670;2023-03-02T07:02:17;21.67;;;11.50;;
47764;SDS011;33529;49.242;8.670;2023-03-02T07:04:43;19.70;;;9.70;;
47764;SDS011;33529;49.242;8.670;2023-03-02T07:07:10;17.83;;;9.43;;
47764;SDS011;33529;49.242;8.670;2023-03-02T07:09:37;24.60;;;11.05;;
47764;SDS011;33529;49.242;8.670;2023-03-02T07:12:04;17.63;;;10.27;;
47764;SDS011;33529;49.242;8.670;2023-03-02T07:14:31;24.33;;;11.88;;
47764;SDS011;33529;49.242;8.670;2023-03-02T07:17:02;19.45;;;11.80;;
47764;SDS011;33529;49.242;8.670;2023-03-02T07:19:30;22.13;;;12.32;;
47764;SDS011;33529;49.242;8.670;2023-03-02T07:21:56;21.23;;;10.93;;
47764;SDS011;33529;49.242;8.670;2023-03-02T07:24:23;21.48;;;11.57;;
47764;SDS011;33529;49.242;8.670;2023-03-02T07:26:50;19.30;;;11.10;;
47764;SDS011;33529;49.242;8.670;2023-03-02T07:29:17;20.02;;;10.48;;
47764;SDS011;33529;49.242;8.670;2023-03-02T07:31:43;16.35;;;11.23;;
47764;SDS011;33529;49.242;8.670;2023-03-02T07:34:10;16.50;;;9.48;;
47764;SDS011;33529;49.242;8.670;2023-03-02T07:36:37;15.88;;;9.05;;
47764;SDS011;33529;49.242;8.670;2023-03-02T07:39:04;15.57;;;8.77;;
47764;SDS011;33529;49.242;8.670;2023-03-02T07:41:30;24.25;;;12.35;;
47764;SDS011;33529;49.242;8.670;2023-03-02T07:43:57;20.83;;;11.77;;
47764;SDS011;33529;49.242;8.670;2023-03-02T07:46:24;21.75;;;11.35;;
47764;SDS011;33529;49.242;8.670;2023-03-02T07:48:51;22.00;;;11.60;;
47764;SDS011;33529;49.242;8.670;2023-03-02T07:51:19;18.52;;;11.52;;
47764;SDS011;33529;49.242;8.670;2023-03-02T07:53:45;18.95;;;11.27;;
47764;SDS011;33529;49.242;8.670;2023-03-02T07:56:12;21.48;;;11.88;;
47764;SDS011;33529;49.242;8.670;2023-03-02T07:58:39;19.10;;;11.27;;
47764;SDS011;33529;49.242;8.670;2023-03-02T08:01:05;19.88;;;11.32;;
47764;SDS011;33529;49.242;8.670;2023-03-02T08:03:32;23.25;;;12.15;;
47764;SDS011;33529;49.242;8.670;2023-03-02T08:06:06;21.52;;;11.57;;
47764;SDS011;33529;49.242;8.670;2023-03-02T08:08:35;19.33;;;10.30;;
47764;SDS011;33529;49.242;8.670;2023-03-02T08:11:06;15.45;;;9.40;;
47764;SDS011;33529;49.242;8.670;2023-03-02T08:13:34;19.92;;;9.68;;
47764;SDS011;33529;49.242;8.670;2023-03-02T08:16:02;18.20;;;10.23;;
47764;SDS011;33529;49.242;8.670;2023-03-02T08:18:31;14.68;;;8.38;;
47764;SDS011;33529;49.242;8.670;2023-03-02T08:20:58;18.63;;;9.02;;
47764;SDS011;33529;49.242;8.670;2023-03-02T08:23:25;17.63;;;9.95;;
47764;SDS011;33529;49.242;8.670;2023-03-02T08:25:53;15.52;;;9.95;;
47764;SDS011;33529;49.242;8.670;2023-03-02T08:28:21;17.85;;;9.50;;
47764;SDS011;33529;49.242;8.670;2023-03-02T08:30:54;17.58;;;10.23;;
47764;SDS011;33529;49.242;8.670;2023-03-02T08:33:22;16.65;;;9.35;;
47764;SDS011;33529;49.242;8.670;2023-03-02T08:36:10;16.05;;;9.50;;
47764;SDS011;33529;49.242;8.670;2023-03-02T08:38:40;14.90;;;9.32;;
47764;SDS011;33529;49.242;8.670;2023-03-02T08:41:09;15.25;;;9.25;;
47764;SDS011;33529;49.242;8.670;2023-03-02T08:43:37;17.55;;;9.27;;
47764;SDS011;33529;49.242;8.670;2023-03-02T08:46:04;14.48;;;9.10;;
47764;SDS011;33529;49.242;8.670;2023-03-02T08:48:32;14.80;;;7.88;;
47764;SDS011;33529;49.242;8.670;2023-03-02T08:51:03;15.55;;;9.30;;
47764;SDS011;33529;49.242;8.670;2023-03-02T08:53:33;17.88;;;9.38;;
47764;SDS011;33529;49.242;8.670;2023-03-02T08:56:02;15.68;;;9.75;;
47764;SDS011;33529;49.242;8.670;2023-03-02T08:58:29;16.75;;;8.40;;
47764;SDS011;33529;49.242;8.670;2023-03-02T09:00:56;16.23;;;9.07;;
47764;SDS011;33529;49.242;8.670;2023-03-02T09:03:23;19.67;;;9.52;;
47764;SDS011;33529;49.242;8.670;2023-03-02T09:05:50;15.48;;;8.70;;
47764;SDS011;33529;49.242;8.670;2023-03-02T09:08:17;15.05;;;8.23;;
47764;SDS011;33529;49.242;8.670;2023-03-02T09:10:44;15.35;;;8.30;;
47764;SDS011;33529;49.242;8.670;2023-03-02T09:13:11;15.75;;;8.60;;
47764;SDS011;33529;49.242;8.670;2023-03-02T09:15:37;16.40;;;8.32;;
47764;SDS011;33529;49.242;8.670;2023-03-02T09:18:04;18.67;;;9.02;;
47764;SDS011;33529;49.242;8.670;2023-03-02T09:20:31;14.07;;;7.55;;
47764;SDS011;33529;49.242;8.670;2023-03-02T09:22:59;15.52;;;8.00;;
47764;SDS011;33529;49.242;8.670;2023-03-02T09:25:25;18.13;;;8.63;;
47764;SDS011;33529;49.242;8.670;2023-03-02T09:27:52;15.32;;;8.38;;
47764;SDS011;33529;49.242;8.670;2023-03-02T09:30:19;14.55;;;8.45;;
47764;SDS011;33529;49.242;8.670;2023-03-02T09:32:45;13.98;;;7.60;;
47764;SDS011;33529;49.242;8.670;2023-03-02T09:35:14;16.13;;;8.52;;
47764;SDS011;33529;49.242;8.670;2023-03-02T09:37:41;12.93;;;7.53;;
47764;SDS011;33529;49.242;8.670;2023-03-02T09:40:22;14.85;;;8.13;;
47764;SDS011;33529;49.242;8.670;2023-03-02T09:49:13;16.10;;;7.50;;
47764;SDS011;33529;49.242;8.670;2023-03-02T09:51:46;10.38;;;7.10;;
47764;SDS011;33529;49.242;8.670;2023-03-02T09:54:33;15.50;;;8.57;;
47764;SDS011;33529;49.242;8.670;2023-03-02T09:57:03;13.70;;;7.78;;
47764;SDS011;33529;49.242;8.670;2023-03-02T09:59:57;12.77;;;6.38;;
47764;SDS011;33529;49.242;8.670;2023-03-02T10:05:20;15.20;;;7.22;;
47764;SDS011;33529;49.242;8.670;2023-03-02T10:07:55;15.27;;;7.72;;
47764;SDS011;33529;49.242;8.670;2023-03-02T10:10:34;13.05;;;6.70;;
47764;SDS011;33529;49.242;8.670;2023-03-02T10:18:20;14.30;;;8.27;;
47764;SDS011;33529;49.242;8.670;2023-03-02T10:28:48;11.90;;;7.00;;
47764;SDS011;33529;49.242;8.670;2023-03-02T10:31:24;15.10;;;7.88;;
47764;SDS011;33529;49.242;8.670;2023-03-02T10:33:57;14.02;;;8.63;;
47764;SDS011;33529;49.242;8.670;2023-03-02T10:36:28;15.10;;;7.78;;
47764;SDS011;33529;49.242;8.670;2023-03-02T10:38:56;15.20;;;8.52;;
47764;SDS011;33529;49.242;8.670;2023-03-02T10:41:29;13.95;;;7.57;;
47764;SDS011;33529;49.242;8.670;2023-03-02T10:44:00;13.10;;;7.45;;
47764;SDS011;33529;49.242;8.670;2023-03-02T10:47:04;13.55;;;7.88;;
47764;SDS011;33529;49.242;8.670;2023-03-02T10:49:31;13.48;;;7.70;;
47764;SDS011;33529;49.242;8.670;2023-03-02T10:52:05;13.35;;;7.40;;
47764;SDS011;33529;49.242;8.670;2023-03-02T10:54:35;11.48;;;6.95;;
47764;SDS011;33529;49.242;8.670;2023-03-02T10:57:03;13.25;;;6.70;;
47764;SDS011;33529;49.242;8.670;2023-03-02T10:59:46;13.63;;;6.88;;
47764;SDS011;33529;49.242;8.670;2023-03-02T11:04:53;12.30;;;6.70;;
47764;SDS011;33529;49.242;8.670;2023-03-02T11:07:24;14.30;;;6.97;;
47764;SDS011;33529;49.242;8.670;2023-03-02T11:12:29;12.77;;;7.60;;
47764;SDS011;33529;49.242;8.670;2023-03-02T11:15:16;16.35;;;7.43;;
47764;SDS011;33529;49.242;8.670;2023-03-02T11:17:43;13.88;;;7.50;;
47764;SDS011;33529;49.242;8.670;2023-03-02T11:20:15;14.32;;;7.47;;
47764;SDS011;33529;49.242;8.670;2023-03-02T11:25:51;12.10;;;6.82;;
47764;SDS011;33529;49.242;8.670;2023-03-02T11:28:40;11.60;;;6.80;;
47764;SDS011;33529;49.242;8.670;2023-03-02T11:31:15;12.70;;;6.97;;
47764;SDS011;33529;49.242;8.670;2023-03-02T11:36:55;11.60;;;6.30;;
47764;SDS011;33529;49.242;8.670;2023-03-02T11:39:30;11.15;;;6.82;;
47764;SDS011;33529;49.242;8.670;2023-03-02T11:42:29;13.73;;;6.30;;
47764;SDS011;33529;49.242;8.670;2023-03-02T11:47:41;11.98;;;7.07;;
47764;SDS011;33529;49.242;8.670;2023-03-02T11:50:23;11.30;;;6.53;;
47764;SDS011;33529;49.242;8.670;2023-03-02T11:53:01;12.15;;;7.07;;
47764;SDS011;33529;49.242;8.670;2023-03-02T11:55:42;11.82;;;6.55;;
47764;SDS011;33529;49.242;8.670;2023-03-02T11:58:18;11.55;;;6.60;;
47764;SDS011;33529;49.242;8.670;2023-03-02T12:00:47;12.32;;;6.57;;
47764;SDS011;33529;49.242;8.670;2023-03-02T12:05:45;10.95;;;6.03;;
47764;SDS011;33529;49.242;8.670;2023-03-02T12:08:36;11.30;;;5.78;;
47764;SDS011;33529;49.242;8.670;2023-03-02T12:13:45;10.98;;;6.88;;
47764;SDS011;33529;49.242;8.670;2023-03-02T12:16:38;12.32;;;5.88;;
47764;SDS011;33529;49.242;8.670;2023-03-02T12:19:10;9.98;;;6.32;;
47764;SDS011;33529;49.242;8.670;2023-03-02T12:21:40;11.00;;;5.60;;
47764;SDS011;33529;49.242;8.670;2023-03-02T12:24:22;11.45;;;6.60;;
47764;SDS011;33529;49.242;8.670;2023-03-02T12:27:03;11.07;;;6.35;;
47764;SDS011;33529;49.242;8.670;2023-03-02T12:29:50;9.70;;;5.90;;
47764;SDS011;33529;49.242;8.670;2023-03-02T12:32:34;11.68;;;6.60;;
47764;SDS011;33529;49.242;8.670;2023-03-02T12:37:33;12.38;;;6.53;;
47764;SDS011;33529;49.242;8.670;2023-03-02T12:42:37;10.50;;;6.03;;
47764;SDS011;33529;49.242;8.670;2023-03-02T12:48:02;10.73;;;5.85;;
47764;SDS011;33529;49.242;8.670;2023-03-02T12:50:37;10.10;;;5.72;;
47764;SDS011;33529;49.242;8.670;2023-03-02T12:53:12;9.77;;;6.13;;
47764;SDS011;33529;49.242;8.670;2023-03-02T12:55:42;11.35;;;5.60;;
47764;SDS011;33529;49.242;8.670;2023-03-02T12:58:19;10.38;;;5.65;;
47764;SDS011;33529;49.242;8.670;2023-03-02T13:00:52;11.43;;;5.45;;
47764;SDS011;33529;49.242;8.670;2023-03-02T13:03:20;12.35;;;6.00;;
47764;SDS011;33529;49.242;8.670;2023-03-02T13:05:47;8.77;;;5.43;;
47764;SDS011;33529;49.242;8.670;2023-03-02T13:08:16;12.32;;;5.97;;
47764;SDS011;33529;49.242;8.670;2023-03-02T13:10:47;11.07;;;6.20;;
47764;SDS011;33529;49.242;8.670;2023-03-02T13:13:18;9.25;;;5.25;;
47764;SDS011;33529;49.242;8.670;2023-03-02T13:15:46;11.38;;;6.25;;
47764;SDS011;33529;49.242;8.670;2023-03-02T13:18:21;11.13;;;6.30;;
47764;SDS011;33529;49.242;8.670;2023-03-02T13:20:49;9.18;;;5.80;;
47764;SDS011;33529;49.242;8.670;2023-03-02T13:23:17;9.45;;;5.72;;
47764;SDS011;33529;49.242;8.670;2023-03-02T13:25:49;10.95;;;6.15;;
47764;SDS011;33529;49.242;8.670;2023-03-02T13:28:27;8.05;;;5.38;;
47764;SDS011;33529;49.242;8.670;2023-03-02T13:31:00;9.48;;;6.30;;
47764;SDS011;33529;49.242;8.670;2023-03-02T13:33:28;11.90;;;6.28;;
47764;SDS011;33529;49.242;8.670;2023-03-02T13:35:57;11.25;;;5.78;;
47764;SDS011;33529;49.242;8.670;2023-03-02T13:38:25;10.65;;;5.45;;
47764;SDS011;33529;49.242;8.670;2023-03-02T13:40:58;10.60;;;4.78;;
47764;SDS011;33529;49.242;8.670;2023-03-02T13:43:33;9.75;;;5.53;;
47764;SDS011;33529;49.242;8.670;2023-03-02T13:48:57;9.13;;;5.47;;
47764;SDS011;33529;49.242;8.670;2023-03-02T13:51:45;10.65;;;4.80;;
47764;SDS011;33529;49.242;8.670;2023-03-02T13:54:18;9.15;;;5.53;;
47764;SDS011;33529;49.242;8.670;2023-03-02T13:56:47;8.07;;;5.07;;
47764;SDS011;33529;49.242;8.670;2023-03-02T13:59:16;10.98;;;5.45;;
47764;SDS011;33529;49.242;8.670;2023-03-02T14:01:44;10.30;;;5.55;;
47764;SDS011;33529;49.242;8.670;2023-03-02T14:04:11;8.63;;;5.93;;
47764;SDS011;33529;49.242;8.670;2023-03-02T14:06:39;9.57;;;4.90;;
47764;SDS011;33529;49.242;8.670;2023-03-02T14:09:07;10.63;;;5.40;;
47764;SDS011;33529;49.242;8.670;2023-03-02T14:11:35;11.25;;;5.07;;
47764;SDS011;33529;49.242;8.670;2023-03-02T14:14:03;10.02;;;5.18;;
47764;SDS011;33529;49.242;8.670;2023-03-02T14:16:31;10.63;;;6.28;;
47764;SDS011;33529;49.242;8.670;2023-03-02T14:19:02;9.63;;;5.20;;
47764;SDS011;33529;49.242;8.670;2023-03-02T14:21:29;9.82;;;5.72;;
47764;SDS011;33529;49.242;8.670;2023-03-02T14:23:56;9.88;;;5.32;;
47764;SDS011;33529;49.242;8.670;2023-03-02T14:26:26;8.18;;;5.18;;
47764;SDS011;33529;49.242;8.670;2023-03-02T14:28:55;8.32;;;4.80;;
47764;SDS011;33529;49.242;8.670;2023-03-02T14:31:31;8.38;;;4.60;;
47764;SDS011;33529;49.242;8.670;2023-03-02T14:33:59;10.07;;;5.43;;
47764;SDS011;33529;49.242;8.670;2023-03-02T14:36:30;6.97;;;4.93;;
47764;SDS011;33529;49.242;8.670;2023-03-02T14:38:59;9.02;;;5.47;;
47764;SDS011;33529;49.242;8.670;2023-03-02T14:41:29;10.27;;;5.32;;
47764;SDS011;33529;49.242;8.670;2023-03-02T14:43:57;10.48;;;5.13;;
47764;SDS011;33529;49.242;8.670;2023-03-02T14:46:24;8.32;;;5.38;;
47764;SDS011;33529;49.242;8.670;2023-03-02T14:48:51;11.13;;;5.28;;
47764;SDS011;33529;49.242;8.670;2023-03-02T14:51:20;8.23;;;5.35;;
47764;SDS011;33529;49.242;8.670;2023-03-02T14:53:50;8.73;;;5.50;;
47764;SDS011;33529;49.242;8.670;2023-03-02T14:56:20;8.57;;;5.18;;
47764;SDS011;33529;49.242;8.670;2023-03-02T14:58:51;9.55;;;5.25;;
47764;SDS011;33529;49.242;8.670;2023-03-02T15:01:18;8.75;;;4.38;;
47764;SDS011;33529;49.242;8.670;2023-03-02T15:03:46;6.80;;;4.00;;
47764;SDS011;33529;49.242;8.670;2023-03-02T15:06:21;8.10;;;4.40;;
47764;SDS011;33529;49.242;8.670;2023-03-02T15:08:48;7.68;;;4.53;;
47764;SDS011;33529;49.242;8.670;2023-03-02T15:11:15;9.25;;;5.13;;
47764;SDS011;33529;49.242;8.670;2023-03-02T15:13:42;7.45;;;4.93;;
47764;SDS011;33529;49.242;8.670;2023-03-02T15:16:11;9.10;;;5.15;;
47764;SDS011;33529;49.242;8.670;2023-03-02T15:18:38;7.55;;;4.97;;
47764;SDS011;33529;49.242;8.670;2023-03-02T15:21:05;10.57;;;4.47;;
47764;SDS011;33529;49.242;8.670;2023-03-02T15:23:32;11.88;;;6.28;;
47764;SDS011;33529;49.242;8.670;2023-03-02T15:25:59;7.93;;;4.70;;
47764;SDS011;33529;49.242;8.670;2023-03-02T15:28:27;8.68;;;5.20;;
47764;SDS011;33529;49.242;8.670;2023-03-02T15:30:54;8.65;;;4.72;;
47764;SDS011;33529;49.242;8.670;2023-03-02T15:33:22;7.00;;;4.78;;
47764;SDS011;33529;49.242;8.670;2023-03-02T15:35:51;6.63;;;4.53;;
47764;SDS011;33529;49.242;8.670;2023-03-02T15:38:22;9.27;;;4.60;;
47764;SDS011;33529;49.242;8.670;2023-03-02T15:40:50;8.18;;;4.60;;
47764;SDS011;33529;49.242;8.670;2023-03-02T15:43:19;8.23;;;5.05;;
47764;SDS011;33529;49.242;8.670;2023-03-02T15:45:46;6.70;;;4.28;;
47764;SDS011;33529;49.242;8.670;2023-03-02T15:48:13;9.35;;;5.00;;
47764;SDS011;33529;49.242;8.670;2023-03-02T15:50:39;16.83;;;8.05;;
47764;SDS011;33529;49.242;8.670;2023-03-02T15:53:06;11.88;;;6.93;;